Time;durP1;ratioP1;P1;durP2;ratioP2;P2;SDS_P1;SDS_P2;PMS_P1;PMS_P2;Temp;Humidity;BMP_temperature;BMP_pressure;BME280_temperature;BME280_humidity;BME280_pressure;Samples;Min_cycle;Max_cycle;Signal;HPM_P1;HPM_P2
2023/07/04 00:01:32;;;;;;;12.18;5.50;;;;;;;;;;5030430;28;20024;-84
2023/07/04 00:03:57;;;;;;;13.40;5.60;;;;;;;;;;5029754;28;20037;-84
2023/07/04 00:06:27;;;;;;;11.00;5.68;;;;;;;;;;5040280;28;20029;-82
2023/07/04 00:08:53;;;;;;;11.52;5.47;;;;;;;;;;5032677;28;20029;-83
2023/07/04 00:11:20;;;;;;;13.48;5.80;;;;;;;;;;5027229;28;20057;-83
2023/07/04 00:13:47;;;;;;;11.30;5.82;;;;;;;;;;5046380;28;20097;-82
2023/07/04 00:16:14;;;;;;;11.32;5.70;;;;;;;;;;5027225;28;20083;-83
2023/07/04 00:18:41;;;;;;;10.85;5.40;;;;;;;;;;5026252;28;20038;-84
2023/07/04 00:21:13;;;;;;;11.73;5.88;;;;;;;;;;5041303;28;20029;-84
2023/07/04 00:23:41;;;;;;;10.55;5.63;;;;;;;;;;5002515;28;20036;-84
2023/07/04 00:26:08;;;;;;;11.55;5.80;;;;;;;;;;5046678;28;20049;-84
2023/07/04 00:28:38;;;;;;;10.65;5.45;;;;;;;;;;5030580;28;20108;-83
2023/07/04 00:31:04;;;;;;;11.07;5.75;;;;;;;;;;5022116;28;20083;-84
2023/07/04 00:33:33;;;;;;;10.38;5.82;;;;;;;;;;4991380;28;20041;-83
2023/07/04 00:36:15;;;;;;;8.93;5.40;;;;;;;;;;5024473;28;20048;-82
2023/07/04 00:38:44;;;;;;;10.50;5.65;;;;;;;;;;5054697;28;20044;-82
2023/07/04 00:41:17;;;;;;;10.60;5.70;;;;;;;;;;5040043;28;20060;-82
2023/07/04 00:43:46;;;;;;;13.18;6.22;;;;;;;;;;5016924;28;20162;-83
2023/07/04 00:46:15;;;;;;;9.18;5.28;;;;;;;;;;5011198;28;20042;-83
2023/07/04 00:48:45;;;;;;;12.70;5.88;;;;;;;;;;5052161;28;20037;-84
2023/07/04 00:51:22;;;;;;;9.20;5.35;;;;;;;;;;5043574;28;20197;-84
2023/07/04 00:53:54;;;;;;;12.00;5.78;;;;;;;;;;5036370;28;20029;-83
2023/07/04 00:56:25;;;;;;;10.25;5.80;;;;;;;;;;5034653;28;20017;-84
2023/07/04 00:58:59;;;;;;;10.00;5.47;;;;;;;;;;5017250;28;20475;-84
2023/07/04 01:01:25;;;;;;;11.93;5.53;;;;;;;;;;5044952;28;20055;-84
2023/07/04 01:03:52;;;;;;;9.05;5.55;;;;;;;;;;5053611;28;20096;-84
2023/07/04 01:06:28;;;;;;;12.13;5.78;;;;;;;;;;5025969;28;20022;-83
2023/07/04 01:09:00;;;;;;;13.90;5.80;;;;;;;;;;5037108;28;20443;-83
2023/07/04 01:11:32;;;;;;;9.27;5.57;;;;;;;;;;5011192;28;20062;-83
2023/07/04 01:13:57;;;;;;;10.07;5.35;;;;;;;;;;5021374;28;20446;-83
2023/07/04 01:16:23;;;;;;;14.23;6.10;;;;;;;;;;5031619;28;20029;-83
2023/07/04 01:18:56;;;;;;;12.43;5.70;;;;;;;;;;5024490;28;20029;-82
2023/07/04 01:21:26;;;;;;;11.85;6.03;;;;;;;;;;5026041;28;20033;-84
2023/07/04 01:24:11;;;;;;;9.23;5.57;;;;;;;;;;5040032;28;20043;-84
2023/07/04 01:26:44;;;;;;;11.38;5.90;;;;;;;;;;5018937;28;20033;-82
2023/07/04 01:29:13;;;;;;;10.23;5.68;;;;;;;;;;5045518;28;20033;-83
2023/07/04 01:31:40;;;;;;;10.77;5.88;;;;;;;;;;5025314;28;20136;-85
2023/07/04 01:34:08;;;;;;;10.73;5.85;;;;;;;;;;5026521;28;20049;-84
2023/07/04 01:36:37;;;;;;;14.18;5.72;;;;;;;;;;5025021;28;20060;-85
2023/07/04 01:39:03;;;;;;;9.85;6.03;;;;;;;;;;5027200;28;20092;-83
2023/07/04 01:41:29;;;;;;;14.60;6.43;;;;;;;;;;5050162;28;20029;-83
2023/07/04 01:44:03;;;;;;;11.52;5.85;;;;;;;;;;5042311;28;20065;-83
2023/07/04 01:46:30;;;;;;;10.43;6.05;;;;;;;;;;5014426;28;20028;-82
2023/07/04 01:48:56;;;;;;;9.52;5.70;;;;;;;;;;5042133;28;20043;-83
2023/07/04 01:51:23;;;;;;;11.07;6.05;;;;;;;;;;5033018;28;20045;-83
2023/07/04 01:53:49;;;;;;;13.65;6.20;;;;;;;;;;5025611;28;20048;-84
2023/07/04 01:56:14;;;;;;;10.27;5.85;;;;;;;;;;5022776;28;20030;-84
2023/07/04 01:58:40;;;;;;;11.65;5.90;;;;;;;;;;5026256;28;20064;-84
2023/07/04 02:01:05;;;;;;;12.73;5.45;;;;;;;;;;5022187;28;20414;-83
2023/07/04 02:03:31;;;;;;;11.40;5.93;;;;;;;;;;5045609;28;20076;-83
2023/07/04 02:05:57;;;;;;;11.57;5.85;;;;;;;;;;5054398;28;20462;-83
2023/07/04 02:08:23;;;;;;;8.90;5.15;;;;;;;;;;5036329;28;20030;-82
2023/07/04 02:10:48;;;;;;;9.75;6.00;;;;;;;;;;5013442;28;20087;-84
2023/07/04 02:13:14;;;;;;;11.40;6.30;;;;;;;;;;5009455;28;20026;-84
2023/07/04 02:15:39;;;;;;;12.23;6.07;;;;;;;;;;5046446;28;20029;-83
2023/07/04 02:18:05;;;;;;;9.70;5.68;;;;;;;;;;5042377;28;20029;-83
2023/07/04 02:20:30;;;;;;;10.07;5.90;;;;;;;;;;5013110;28;20045;-82
2023/07/04 02:22:56;;;;;;;10.20;5.75;;;;;;;;;;5022901;28;20033;-83
2023/07/04 02:25:21;;;;;;;9.63;5.70;;;;;;;;;;5031361;28;20041;-83
2023/07/04 02:27:47;;;;;;;11.77;5.43;;;;;;;;;;5031413;28;20047;-84
2023/07/04 02:30:12;;;;;;;13.77;6.65;;;;;;;;;;5050127;28;20053;-84
2023/07/04 02:32:38;;;;;;;10.68;5.70;;;;;;;;;;5007815;28;20045;-83
2023/07/04 02:35:05;;;;;;;9.55;5.68;;;;;;;;;;5023585;28;20364;-83
2023/07/04 02:37:31;;;;;;;10.13;5.95;;;;;;;;;;5036507;28;20192;-83
2023/07/04 02:39:57;;;;;;;12.57;6.22;;;;;;;;;;5036467;28;20044;-82
2023/07/04 02:42:24;;;;;;;10.20;5.53;;;;;;;;;;5030740;28;20025;-83
2023/07/04 02:44:52;;;;;;;10.30;5.55;;;;;;;;;;5035921;28;20032;-83
2023/07/04 02:47:18;;;;;;;11.27;5.68;;;;;;;;;;5017249;28;20087;-84
2023/07/04 02:49:45;;;;;;;12.52;5.68;;;;;;;;;;5023132;28;20117;-84
2023/07/04 02:52:12;;;;;;;9.98;5.50;;;;;;;;;;5023583;28;20021;-83
2023/07/04 02:54:38;;;;;;;10.48;5.75;;;;;;;;;;5028096;28;20072;-82
2023/07/04 02:57:04;;;;;;;10.95;5.78;;;;;;;;;;5011775;28;20013;-82
2023/07/04 02:59:30;;;;;;;10.63;5.88;;;;;;;;;;5024076;28;20180;-83
2023/07/04 03:01:56;;;;;;;9.77;5.90;;;;;;;;;;5025092;28;20369;-82
2023/07/04 03:04:22;;;;;;;11.60;6.10;;;;;;;;;;5028148;28;20569;-83
2023/07/04 03:06:48;;;;;;;9.68;5.88;;;;;;;;;;5026660;28;20025;-84
2023/07/04 03:09:14;;;;;;;13.65;6.00;;;;;;;;;;5037491;28;20119;-85
2023/07/04 03:11:40;;;;;;;12.70;6.15;;;;;;;;;;5019875;28;20387;-84
2023/07/04 03:14:06;;;;;;;10.52;5.32;;;;;;;;;;5017171;28;20482;-82
2023/07/04 03:16:32;;;;;;;10.13;5.88;;;;;;;;;;5031223;28;20036;-83
2023/07/04 03:18:58;;;;;;;12.27;5.90;;;;;;;;;;5030423;28;20041;-82
2023/07/04 03:21:23;;;;;;;10.68;6.05;;;;;;;;;;5034016;28;20052;-82
2023/07/04 03:23:51;;;;;;;10.95;5.90;;;;;;;;;;5028368;28;20045;-83
2023/07/04 03:26:18;;;;;;;11.90;5.93;;;;;;;;;;5007218;28;20038;-85
2023/07/04 03:28:44;;;;;;;12.75;6.00;;;;;;;;;;5034088;28;20059;-84
2023/07/04 03:31:11;;;;;;;12.63;6.15;;;;;;;;;;5045270;28;20108;-82
2023/07/04 03:33:37;;;;;;;10.48;5.80;;;;;;;;;;5036984;28;20067;-82
2023/07/04 03:36:02;;;;;;;8.82;5.95;;;;;;;;;;5044894;28;20367;-82
2023/07/04 03:38:28;;;;;;;10.80;6.20;;;;;;;;;;5036792;28;20114;-84
2023/07/04 03:40:54;;;;;;;12.68;6.60;;;;;;;;;;5051681;28;20034;-83
2023/07/04 03:43:20;;;;;;;13.18;6.10;;;;;;;;;;5041160;28;20064;-84
2023/07/04 03:45:48;;;;;;;10.43;6.07;;;;;;;;;;5050375;28;20069;-83
2023/07/04 03:48:14;;;;;;;17.48;5.90;;;;;;;;;;5041168;28;20029;-84
2023/07/04 03:50:39;;;;;;;13.10;5.80;;;;;;;;;;5054373;28;20032;-83
2023/07/04 03:53:05;;;;;;;9.27;5.47;;;;;;;;;;5031476;28;20092;-83
2023/07/04 03:55:30;;;;;;;9.52;5.88;;;;;;;;;;5045536;28;20021;-83
2023/07/04 03:57:56;;;;;;;10.70;5.72;;;;;;;;;;5046663;28;20044;-83
2023/07/04 04:00:22;;;;;;;10.10;6.25;;;;;;;;;;5034476;28;20052;-83
2023/07/04 04:02:54;;;;;;;11.85;5.85;;;;;;;;;;5052837;28;20453;-84
2023/07/04 04:05:19;;;;;;;12.93;6.18;;;;;;;;;;5060348;28;20499;-84
2023/07/04 04:07:48;;;;;;;9.88;5.80;;;;;;;;;;5050810;28;20017;-83
2023/07/04 04:10:15;;;;;;;12.80;6.35;;;;;;;;;;5038989;28;20029;-83
2023/07/04 04:12:41;;;;;;;9.75;5.85;;;;;;;;;;5048369;28;20041;-83
2023/07/04 04:15:07;;;;;;;10.65;5.85;;;;;;;;;;5031918;28;20041;-84
2023/07/04 04:17:32;;;;;;;9.27;5.60;;;;;;;;;;5047665;28;20040;-84
2023/07/04 04:19:58;;;;;;;9.13;5.60;;;;;;;;;;5039121;28;20517;-83
2023/07/04 04:22:23;;;;;;;10.73;5.57;;;;;;;;;;5055896;28;20049;-84
2023/07/04 04:24:49;;;;;;;9.35;6.25;;;;;;;;;;5050216;28;20048;-84
2023/07/04 04:27:15;;;;;;;10.02;5.82;;;;;;;;;;5043972;28;20037;-84
2023/07/04 04:29:41;;;;;;;14.55;5.60;;;;;;;;;;5014045;28;20042;-83
2023/07/04 04:32:07;;;;;;;9.75;5.75;;;;;;;;;;5043479;28;20036;-83
2023/07/04 04:34:33;;;;;;;9.73;5.30;;;;;;;;;;5050580;28;20100;-84
2023/07/04 04:36:58;;;;;;;9.90;5.15;;;;;;;;;;5060151;28;20034;-84
2023/07/04 04:39:26;;;;;;;10.60;5.30;;;;;;;;;;5047948;28;20135;-84
2023/07/04 04:41:52;;;;;;;11.02;5.93;;;;;;;;;;5048507;28;20040;-83
2023/07/04 04:44:18;;;;;;;10.73;5.53;;;;;;;;;;5046821;28;20040;-84
2023/07/04 04:46:49;;;;;;;10.73;5.75;;;;;;;;;;5039504;28;20033;-83
2023/07/04 04:49:18;;;;;;;9.23;5.38;;;;;;;;;;5047418;28;20116;-83
2023/07/04 04:51:44;;;;;;;11.13;5.63;;;;;;;;;;5036304;28;20041;-83
2023/07/04 04:54:13;;;;;;;9.90;4.95;;;;;;;;;;5055370;28;20041;-84
2023/07/04 04:56:40;;;;;;;10.10;5.38;;;;;;;;;;5051293;28;20028;-83
2023/07/04 04:59:06;;;;;;;9.32;4.57;;;;;;;;;;5048263;28;20042;-84
2023/07/04 05:01:32;;;;;;;7.88;4.18;;;;;;;;;;5043957;28;20046;-84
2023/07/04 05:03:58;;;;;;;11.10;4.45;;;;;;;;;;5020535;28;20040;-84
2023/07/04 05:06:25;;;;;;;9.98;4.55;;;;;;;;;;5047154;28;20414;-83
2023/07/04 05:08:51;;;;;;;9.40;4.60;;;;;;;;;;5056859;28;20037;-83
2023/07/04 05:11:18;;;;;;;8.38;4.47;;;;;;;;;;5012080;28;20044;-84
2023/07/04 05:13:45;;;;;;;9.40;4.60;;;;;;;;;;5055340;28;20386;-84
2023/07/04 05:16:13;;;;;;;10.98;4.35;;;;;;;;;;5046893;28;20106;-84
2023/07/04 05:18:39;;;;;;;8.30;4.60;;;;;;;;;;5030230;28;20038;-85
2023/07/04 05:21:06;;;;;;;10.65;4.78;;;;;;;;;;5024351;28;20072;-84
2023/07/04 05:23:34;;;;;;;9.45;4.95;;;;;;;;;;5051677;28;20411;-84
2023/07/04 05:26:09;;;;;;;9.20;4.72;;;;;;;;;;5051537;28;20041;-83
2023/07/04 05:28:35;;;;;;;9.98;4.63;;;;;;;;;;5034712;28;20035;-83
2023/07/04 05:31:12;;;;;;;7.82;4.55;;;;;;;;;;5051823;28;20025;-84
2023/07/04 05:33:37;;;;;;;8.07;4.40;;;;;;;;;;5042872;28;20033;-82
2023/07/04 05:36:10;;;;;;;8.57;4.25;;;;;;;;;;5036955;28;20049;-84
2023/07/04 05:38:37;;;;;;;8.27;4.40;;;;;;;;;;5045768;28;20033;-84
2023/07/04 05:41:08;;;;;;;11.00;4.43;;;;;;;;;;5054195;28;20063;-82
2023/07/04 05:43:33;;;;;;;10.50;4.20;;;;;;;;;;5045092;28;20038;-82
2023/07/04 05:45:59;;;;;;;8.35;4.35;;;;;;;;;;5054514;28;20105;-84
2023/07/04 05:48:24;;;;;;;8.73;3.85;;;;;;;;;;5050858;28;20033;-84
2023/07/04 05:50:57;;;;;;;10.98;4.63;;;;;;;;;;5037987;28;20040;-83
2023/07/04 05:53:28;;;;;;;;;;;;;;;;;;5041101;28;20033;-84
2023/07/04 05:56:05;;;;;;;9.65;4.10;;;;;;;;;;5051089;28;19916;-84
2023/07/04 05:58:30;;;;;;;8.25;4.20;;;;;;;;;;5044562;28;20034;-84
2023/07/04 06:00:59;;;;;;;10.73;4.55;;;;;;;;;;5049342;28;20032;-83
2023/07/04 06:03:25;;;;;;;8.93;4.18;;;;;;;;;;5041898;28;20037;-83
2023/07/04 06:05:51;;;;;;;10.25;4.55;;;;;;;;;;5041530;28;20041;-83
2023/07/04 06:08:16;;;;;;;8.45;3.75;;;;;;;;;;5036899;28;20846;-84
2023/07/04 06:10:42;;;;;;;8.68;3.83;;;;;;;;;;5046811;28;20053;-84
2023/07/04 06:13:07;;;;;;;8.50;4.25;;;;;;;;;;5054112;28;20041;-84
2023/07/04 06:15:40;;;;;;;10.45;4.13;;;;;;;;;;5044258;28;20104;-84
2023/07/04 06:18:05;;;;;;;8.63;4.35;;;;;;;;;;5052281;28;20117;-84
2023/07/04 06:20:31;;;;;;;6.57;3.85;;;;;;;;;;5055499;28;20453;-84
2023/07/04 06:22:56;;;;;;;10.68;3.83;;;;;;;;;;5035801;28;20112;-83
2023/07/04 06:25:22;;;;;;;9.82;4.15;;;;;;;;;;5041339;28;20069;-83
2023/07/04 06:27:47;;;;;;;7.18;4.03;;;;;;;;;;5049445;28;20034;-84
2023/07/04 06:30:13;;;;;;;10.68;3.90;;;;;;;;;;5044795;28;20049;-83
2023/07/04 06:32:39;;;;;;;8.40;3.85;;;;;;;;;;5046368;28;20025;-82
2023/07/04 06:35:05;;;;;;;7.95;3.88;;;;;;;;;;5054423;28;20046;-83
2023/07/04 06:37:30;;;;;;;7.45;4.15;;;;;;;;;;5051245;28;20091;-83
2023/07/04 06:39:56;;;;;;;10.00;4.10;;;;;;;;;;5039193;28;20049;-83
2023/07/04 06:42:21;;;;;;;10.10;4.38;;;;;;;;;;5046968;28;20041;-82
2023/07/04 06:44:51;;;;;;;8.50;4.20;;;;;;;;;;5040539;28;20029;-83
2023/07/04 06:47:16;;;;;;;8.15;4.20;;;;;;;;;;5046575;28;20029;-82
2023/07/04 06:49:42;;;;;;;10.55;4.47;;;;;;;;;;5054087;28;20064;-83
2023/07/04 06:52:07;;;;;;;10.40;4.25;;;;;;;;;;5061790;28;20050;-83
2023/07/04 06:54:32;;;;;;;11.88;4.50;;;;;;;;;;5043658;28;20407;-82
2023/07/04 06:57:02;;;;;;;8.05;3.85;;;;;;;;;;5041805;28;20049;-84
2023/07/04 06:59:28;;;;;;;8.95;4.13;;;;;;;;;;5049750;28;20045;-83
2023/07/04 07:01:53;;;;;;;8.85;4.35;;;;;;;;;;5052500;28;20044;-81
2023/07/04 07:04:19;;;;;;;8.18;4.18;;;;;;;;;;5049474;28;20041;-84
2023/07/04 07:06:44;;;;;;;9.90;4.10;;;;;;;;;;5057181;28;20437;-84
2023/07/04 07:09:10;;;;;;;9.10;4.00;;;;;;;;;;5063216;28;20037;-84
2023/07/04 07:11:35;;;;;;;9.88;3.90;;;;;;;;;;5036517;28;20021;-83
2023/07/04 07:14:01;;;;;;;9.50;3.88;;;;;;;;;;5045125;28;20037;-83
2023/07/04 07:16:26;;;;;;;7.82;4.05;;;;;;;;;;5054235;28;20025;-84
2023/07/04 07:18:54;;;;;;;6.43;3.40;;;;;;;;;;5048239;28;20482;-83
2023/07/04 07:21:22;;;;;;;6.55;3.60;;;;;;;;;;5052768;28;20037;-82
2023/07/04 07:23:49;;;;;;;9.23;3.63;;;;;;;;;;5061715;28;20055;-84
2023/07/04 07:26:17;;;;;;;10.57;3.72;;;;;;;;;;5053768;28;20042;-85
2023/07/04 07:28:43;;;;;;;8.52;3.95;;;;;;;;;;5023162;28;20044;-85
2023/07/04 07:31:12;;;;;;;6.35;3.55;;;;;;;;;;5046388;28;20079;-84
2023/07/04 07:33:40;;;;;;;6.22;3.30;;;;;;;;;;5034691;28;20037;-85
2023/07/04 07:36:14;;;;;;;7.65;3.65;;;;;;;;;;5019071;28;20042;-85
2023/07/04 07:38:40;;;;;;;8.50;3.80;;;;;;;;;;5048155;28;20041;-84
2023/07/04 07:41:07;;;;;;;11.82;4.03;;;;;;;;;;5026891;28;20113;-82
2023/07/04 07:43:33;;;;;;;8.63;3.72;;;;;;;;;;5025897;28;21074;-81
2023/07/04 07:45:59;;;;;;;5.45;2.95;;;;;;;;;;5011930;28;20511;-83
2023/07/04 07:48:24;;;;;;;8.63;3.30;;;;;;;;;;5039098;28;20052;-82
2023/07/04 07:50:49;;;;;;;5.60;2.80;;;;;;;;;;5031575;28;20486;-82
2023/07/04 07:53:15;;;;;;;7.32;3.10;;;;;;;;;;5017930;28;20407;-82
2023/07/04 07:55:41;;;;;;;5.72;2.83;;;;;;;;;;5044953;28;20041;-81
2023/07/04 07:58:08;;;;;;;6.40;3.15;;;;;;;;;;5044467;28;20037;-81
2023/07/04 08:00:33;;;;;;;4.53;2.95;;;;;;;;;;5017228;28;20048;-82
2023/07/04 08:02:59;;;;;;;5.60;2.88;;;;;;;;;;5021914;28;20123;-82
2023/07/04 08:05:24;;;;;;;6.03;2.80;;;;;;;;;;5038086;28;20041;-82
2023/07/04 08:07:50;;;;;;;4.95;2.90;;;;;;;;;;5030636;28;20029;-82
2023/07/04 08:10:16;;;;;;;5.05;2.55;;;;;;;;;;5039947;28;20666;-79
2023/07/04 08:12:42;;;;;;;5.78;2.45;;;;;;;;;;5044750;28;20053;-81
2023/07/04 08:15:08;;;;;;;5.53;2.75;;;;;;;;;;5014631;28;20037;-81
2023/07/04 08:17:33;;;;;;;6.20;2.53;;;;;;;;;;5026625;28;20034;-81
2023/07/04 08:19:59;;;;;;;5.60;3.13;;;;;;;;;;5033681;28;20048;-81
2023/07/04 08:22:24;;;;;;;6.07;2.67;;;;;;;;;;5030945;28;20064;-82
2023/07/04 08:24:50;;;;;;;5.00;2.75;;;;;;;;;;5033098;28;20037;-80
2023/07/04 08:27:15;;;;;;;3.78;2.47;;;;;;;;;;5040672;28;20036;-81
2023/07/04 08:29:41;;;;;;;5.80;2.72;;;;;;;;;;5042508;28;20380;-81
2023/07/04 08:32:06;;;;;;;5.20;2.30;;;;;;;;;;5031074;28;20518;-80
2023/07/04 08:34:32;;;;;;;6.10;2.55;;;;;;;;;;5028543;28;20072;-80
2023/07/04 08:36:58;;;;;;;7.30;2.58;;;;;;;;;;5021170;28;20637;-82
2023/07/04 08:39:24;;;;;;;5.10;2.63;;;;;;;;;;5027328;28;20038;-83
2023/07/04 08:41:59;;;;;;;6.28;2.83;;;;;;;;;;5018724;28;20407;-82
2023/07/04 08:44:36;;;;;;;5.18;2.50;;;;;;;;;;5046492;28;20029;-80
2023/07/04 08:47:02;;;;;;;6.43;2.58;;;;;;;;;;5036738;28;20037;-79
2023/07/04 08:49:34;;;;;;;5.25;2.08;;;;;;;;;;5011183;28;20128;-82
2023/07/04 08:52:31;;;;;;;3.45;1.92;;;;;;;;;;5015704;28;20124;-82
2023/07/04 08:54:57;;;;;;;3.13;2.00;;;;;;;;;;5007473;28;20044;-82
2023/07/04 08:57:39;;;;;;;4.68;2.40;;;;;;;;;;5025539;28;20040;-81
2023/07/04 09:00:08;;;;;;;3.60;2.00;;;;;;;;;;5040900;28;20065;-81
2023/07/04 09:03:05;;;;;;;4.68;2.70;;;;;;;;;;5036575;28;20479;-80
2023/07/04 09:06:15;;;;;;;7.05;2.80;;;;;;;;;;5008523;28;20064;-82
2023/07/04 09:08:50;;;;;;;4.53;2.75;;;;;;;;;;5029339;28;20080;-80
2023/07/04 09:11:17;;;;;;;5.82;2.55;;;;;;;;;;5026152;28;20521;-79
2023/07/04 09:13:50;;;;;;;9.88;2.70;;;;;;;;;;5019941;28;20038;-80
2023/07/04 09:16:24;;;;;;;;;;;;;;;;;;5045771;28;20540;-78
2023/07/04 09:18:54;;;;;;;4.03;2.30;;;;;;;;;;5027503;28;19999;-80
2023/07/04 09:21:22;;;;;;;4.43;2.42;;;;;;;;;;5027831;28;20059;-82
2023/07/04 09:23:50;;;;;;;4.20;2.38;;;;;;;;;;5005678;28;20111;-82
2023/07/04 09:26:26;;;;;;;4.82;2.30;;;;;;;;;;5031356;28;20033;-82
2023/07/04 09:28:53;;;;;;;4.43;2.38;;;;;;;;;;5037340;28;20367;-83
2023/07/04 09:31:21;;;;;;;3.55;2.28;;;;;;;;;;5039671;28;20068;-82
2023/07/04 09:33:49;;;;;;;3.90;2.20;;;;;;;;;;5027732;28;20018;-80
2023/07/04 09:36:20;;;;;;;4.32;1.95;;;;;;;;;;5008847;28;20033;-82
2023/07/04 09:39:04;;;;;;;3.17;2.00;;;;;;;;;;5036109;28;20026;-80
2023/07/04 09:41:35;;;;;;;4.93;2.10;;;;;;;;;;5035580;28;20068;-80
2023/07/04 09:44:19;;;;;;;5.32;2.13;;;;;;;;;;5031656;28;20037;-82
2023/07/04 09:46:50;;;;;;;3.10;2.10;;;;;;;;;;5029771;28;20040;-81
2023/07/04 09:49:29;;;;;;;5.50;2.10;;;;;;;;;;5032422;28;20073;-81
2023/07/04 09:52:18;;;;;;;4.30;2.00;;;;;;;;;;5031493;28;20044;-81
2023/07/04 09:54:44;;;;;;;6.18;2.05;;;;;;;;;;5041495;28;20086;-83
2023/07/04 09:57:28;;;;;;;3.30;2.20;;;;;;;;;;5035153;28;20105;-82
2023/07/04 10:00:11;;;;;;;3.55;2.10;;;;;;;;;;5024081;28;20116;-82
2023/07/04 10:02:38;;;;;;;3.38;2.10;;;;;;;;;;5036819;28;20522;-83
2023/07/04 10:05:05;;;;;;;5.68;2.35;;;;;;;;;;5037911;28;20017;-82
2023/07/04 10:07:31;;;;;;;4.53;2.60;;;;;;;;;;5021732;28;20479;-82
2023/07/04 10:10:06;;;;;;;4.85;2.20;;;;;;;;;;5032790;28;20083;-81
2023/07/04 10:12:41;;;;;;;3.10;1.80;;;;;;;;;;5033953;28;20034;-81
2023/07/04 10:15:07;;;;;;;2.80;1.80;;;;;;;;;;5033092;28;20029;-81
2023/07/04 10:17:35;;;;;;;3.75;2.03;;;;;;;;;;5042889;28;20169;-81
2023/07/04 10:20:13;;;;;;;3.22;2.00;;;;;;;;;;5048293;28;20099;-82
2023/07/04 10:22:51;;;;;;;5.07;2.53;;;;;;;;;;5009919;28;20124;-81
2023/07/04 10:25:21;;;;;;;3.55;2.00;;;;;;;;;;5033743;28;20029;-81
2023/07/04 10:27:57;;;;;;;5.50;2.55;;;;;;;;;;5040565;28;20072;-82
2023/07/04 10:30:29;;;;;;;4.43;2.38;;;;;;;;;;5036661;28;20030;-83
2023/07/04 10:33:12;;;;;;;3.85;2.38;;;;;;;;;;5028257;28;20025;-83
2023/07/04 10:35:41;;;;;;;3.45;2.20;;;;;;;;;;5001929;28;20042;-82
2023/07/04 10:38:23;;;;;;;4.13;2.40;;;;;;;;;;5027007;28;20021;-82
2023/07/04 10:40:50;;;;;;;4.20;2.50;;;;;;;;;;5037792;28;20026;-82
2023/07/04 10:43:29;;;;;;;4.55;2.20;;;;;;;;;;5047691;28;20059;-81
2023/07/04 10:45:58;;;;;;;11.02;2.20;;;;;;;;;;5023629;28;20032;-82
2023/07/04 10:48:29;;;;;;;4.95;2.17;;;;;;;;;;5021656;28;20037;-83
2023/07/04 10:51:20;;;;;;;3.30;1.85;;;;;;;;;;5023568;28;20037;-83
2023/07/04 10:53:45;;;;;;;7.18;2.20;;;;;;;;;;5027135;28;20044;-82
2023/07/04 10:56:24;;;;;;;5.00;2.08;;;;;;;;;;5039156;28;20043;-82
2023/07/04 10:58:54;;;;;;;2.63;1.73;;;;;;;;;;5013311;28;20045;-82
2023/07/04 11:01:26;;;;;;;3.22;2.00;;;;;;;;;;5040835;28;20049;-82
2023/07/04 11:03:59;;;;;;;4.25;1.88;;;;;;;;;;5020798;28;20090;-82
2023/07/04 11:06:32;;;;;;;4.40;1.95;;;;;;;;;;5036936;28;20049;-82
2023/07/04 11:08:57;;;;;;;4.82;1.67;;;;;;;;;;5030388;28;20038;-81
2023/07/04 11:11:30;;;;;;;2.95;1.70;;;;;;;;;;5035275;28;20069;-85
2023/07/04 11:14:01;;;;;;;3.60;1.50;;;;;;;;;;5049643;28;20061;-84
2023/07/04 11:16:29;;;;;;;2.88;1.70;;;;;;;;;;5054348;28;20045;-83
2023/07/04 11:19:19;;;;;;;3.17;1.63;;;;;;;;;;5048924;28;20041;-83
2023/07/04 11:22:00;;;;;;;4.00;1.67;;;;;;;;;;5035232;28;20050;-84
2023/07/04 11:24:44;;;;;;;4.15;1.55;;;;;;;;;;5025095;28;20100;-83
2023/07/04 11:27:19;;;;;;;3.20;2.00;;;;;;;;;;5043368;28;20036;-83
2023/07/04 11:29:58;;;;;;;2.03;1.50;;;;;;;;;;5051639;28;20036;-84
2023/07/04 11:32:54;;;;;;;3.33;1.70;;;;;;;;;;5049392;28;20121;-84
2023/07/04 11:35:23;;;;;;;4.65;1.60;;;;;;;;;;5035086;28;20120;-83
2023/07/04 11:37:52;;;;;;;2.97;1.67;;;;;;;;;;5042397;28;20048;-83
2023/07/04 11:40:23;;;;;;;2.72;1.67;;;;;;;;;;5037000;28;20128;-83
2023/07/04 11:43:03;;;;;;;3.35;1.50;;;;;;;;;;5041636;28;20042;-83
2023/07/04 11:45:30;;;;;;;3.15;1.83;;;;;;;;;;5047174;28;20070;-84
2023/07/04 11:48:02;;;;;;;4.07;1.83;;;;;;;;;;5034810;28;20476;-84
2023/07/04 11:50:43;;;;;;;3.58;1.58;;;;;;;;;;5045920;28;20191;-84
2023/07/04 11:53:14;;;;;;;6.57;1.92;;;;;;;;;;5045299;28;20034;-84
2023/07/04 11:55:40;;;;;;;4.72;1.60;;;;;;;;;;5026616;28;20037;-84
2023/07/04 11:58:08;;;;;;;3.63;1.50;;;;;;;;;;5035211;28;20025;-83
2023/07/04 12:00:37;;;;;;;4.28;1.50;;;;;;;;;;5045503;28;20053;-84
2023/07/04 12:03:18;;;;;;;2.75;1.42;;;;;;;;;;5054571;28;20032;-84
2023/07/04 12:05:45;;;;;;;2.15;1.35;;;;;;;;;;5047691;28;20064;-84
2023/07/04 12:08:18;;;;;;;3.13;1.60;;;;;;;;;;5055870;28;20128;-85
2023/07/04 12:10:44;;;;;;;2.70;1.48;;;;;;;;;;5029614;28;20041;-85
2023/07/04 12:13:11;;;;;;;3.45;1.48;;;;;;;;;;5035486;28;20034;-84
2023/07/04 12:15:39;;;;;;;2.50;1.50;;;;;;;;;;5044105;28;20034;-85
2023/07/04 12:18:37;;;;;;;1.95;1.40;;;;;;;;;;5045578;28;20473;-84
2023/07/04 12:21:03;;;;;;;2.47;1.60;;;;;;;;;;5017679;28;20049;-84
2023/07/04 12:23:29;;;;;;;3.13;1.45;;;;;;;;;;5041184;28;20490;-83
2023/07/04 12:25:58;;;;;;;3.13;1.45;;;;;;;;;;5024697;28;20558;-83
2023/07/04 12:28:27;;;;;;;2.95;1.30;;;;;;;;;;5027405;28;20061;-82
2023/07/04 12:30:58;;;;;;;2.13;1.40;;;;;;;;;;5027993;28;20048;-83
2023/07/04 12:33:33;;;;;;;2.05;1.33;;;;;;;;;;5035735;28;20045;-83
2023/07/04 12:36:06;;;;;;;2.55;1.40;;;;;;;;;;5039766;28;20124;-83
2023/07/04 12:38:32;;;;;;;2.05;1.20;;;;;;;;;;5036289;28;20488;-82
2023/07/04 12:40:59;;;;;;;3.50;1.40;;;;;;;;;;5044983;28;20045;-85
2023/07/04 12:43:32;;;;;;;2.60;1.58;;;;;;;;;;5016811;28;20030;-85
2023/07/04 12:46:11;;;;;;;2.30;1.42;;;;;;;;;;5005979;28;20067;-85
2023/07/04 12:48:38;;;;;;;2.78;1.45;;;;;;;;;;5006182;28;20037;-84
2023/07/04 12:51:08;;;;;;;4.22;1.38;;;;;;;;;;5041814;28;20033;-85
2023/07/04 12:53:34;;;;;;;3.55;1.20;;;;;;;;;;5032495;28;20046;-85
2023/07/04 12:56:01;;;;;;;4.10;1.60;;;;;;;;;;5040816;28;20060;-84
2023/07/04 12:58:26;;;;;;;3.13;1.40;;;;;;;;;;5025074;28;20132;-86
2023/07/04 13:00:52;;;;;;;5.45;1.60;;;;;;;;;;5034714;28;20045;-86
2023/07/04 13:03:18;;;;;;;2.10;1.40;;;;;;;;;;5042011;28;20048;-86
2023/07/04 13:05:47;;;;;;;2.53;1.50;;;;;;;;;;5049087;28;20035;-87
2023/07/04 13:08:18;;;;;;;3.38;1.50;;;;;;;;;;5049158;28;20037;-87
2023/07/04 13:10:51;;;;;;;2.38;1.40;;;;;;;;;;5050242;28;20045;-86
2023/07/04 13:13:38;;;;;;;2.93;1.57;;;;;;;;;;5058969;28;20024;-86
2023/07/04 13:16:13;;;;;;;2.33;1.40;;;;;;;;;;5039698;28;20042;-86
2023/07/04 13:18:41;;;;;;;2.88;1.50;;;;;;;;;;5040107;28;20037;-87
2023/07/04 13:21:08;;;;;;;2.38;1.40;;;;;;;;;;5031394;28;20603;-87
2023/07/04 13:23:36;;;;;;;4.10;1.48;;;;;;;;;;5051639;28;20073;-87
2023/07/04 13:26:03;;;;;;;3.38;1.40;;;;;;;;;;5046797;28;20031;-87
2023/07/04 13:28:32;;;;;;;2.90;1.60;;;;;;;;;;5054952;28;20033;-87
2023/07/04 13:31:19;;;;;;;1.90;1.40;;;;;;;;;;5041699;28;20029;-87
2023/07/04 13:33:45;;;;;;;3.20;1.40;;;;;;;;;;5035740;28;20031;-87
2023/07/04 13:36:23;;;;;;;2.35;1.45;;;;;;;;;;5046117;28;20539;-87
2023/07/04 13:38:51;;;;;;;5.28;1.42;;;;;;;;;;5037164;28;20099;-86
2023/07/04 13:41:22;;;;;;;3.08;1.55;;;;;;;;;;5045913;28;20048;-86
2023/07/04 13:43:47;;;;;;;2.17;1.50;;;;;;;;;;5053551;28;20040;-87
2023/07/04 13:46:13;;;;;;;2.35;1.50;;;;;;;;;;5062743;28;20080;-87
2023/07/04 13:48:38;;;;;;;2.78;1.60;;;;;;;;;;5043191;28;20037;-87
2023/07/04 13:51:03;;;;;;;2.88;1.52;;;;;;;;;;5040936;28;20045;-88
2023/07/04 13:53:29;;;;;;;2.05;1.30;;;;;;;;;;5032654;28;20041;-88
2023/07/04 13:55:56;;;;;;;2.58;1.50;;;;;;;;;;5055359;28;20040;-88
2023/07/04 13:58:22;;;;;;;3.58;1.50;;;;;;;;;;5036056;28;20027;-86
2023/07/04 14:00:48;;;;;;;2.65;1.50;;;;;;;;;;5058839;28;20052;-86
2023/07/04 14:03:14;;;;;;;3.13;1.60;;;;;;;;;;5064298;28;20068;-87
2023/07/04 14:05:41;;;;;;;3.53;1.80;;;;;;;;;;5035639;28;20028;-87
2023/07/04 14:08:08;;;;;;;1.77;1.27;;;;;;;;;;5046634;28;20455;-87
2023/07/04 14:10:34;;;;;;;2.08;1.40;;;;;;;;;;5037702;28;20188;-87
2023/07/04 14:13:00;;;;;;;2.05;1.20;;;;;;;;;;5056747;28;20040;-88
2023/07/04 14:15:26;;;;;;;3.67;1.67;;;;;;;;;;5059922;28;20044;-86
2023/07/04 14:17:51;;;;;;;2.55;1.20;;;;;;;;;;5057581;28;20037;-86
2023/07/04 14:20:17;;;;;;;2.10;1.40;;;;;;;;;;5045492;28;20055;-87
2023/07/04 14:22:43;;;;;;;2.10;1.30;;;;;;;;;;5040280;28;20073;-87
2023/07/04 14:25:08;;;;;;;2.22;1.35;;;;;;;;;;5028724;28;20037;-87
2023/07/04 14:27:35;;;;;;;3.55;1.67;;;;;;;;;;5037382;28;20072;-87
2023/07/04 14:30:01;;;;;;;4.72;1.58;;;;;;;;;;5038553;28;20041;-86
2023/07/04 14:32:27;;;;;;;2.60;1.40;;;;;;;;;;5062255;28;20608;-86
2023/07/04 14:34:53;;;;;;;2.63;1.30;;;;;;;;;;5034312;28;20041;-87
2023/07/04 14:37:19;;;;;;;2.42;1.25;;;;;;;;;;5043399;28;20041;-86
2023/07/04 14:39:50;;;;;;;2.25;1.40;;;;;;;;;;5031518;28;20022;-86
2023/07/04 14:42:16;;;;;;;2.15;1.20;;;;;;;;;;5027647;28;20063;-86
2023/07/04 14:44:41;;;;;;;1.83;1.27;;;;;;;;;;5053412;28;20028;-87
2023/07/04 14:47:07;;;;;;;2.75;1.38;;;;;;;;;;5056649;28;20059;-88
2023/07/04 14:49:35;;;;;;;3.20;1.50;;;;;;;;;;5026590;28;20034;-88
2023/07/04 14:52:00;;;;;;;1.52;1.10;;;;;;;;;;5031568;28;20033;-87